sensor_id;sensor_type;location;lat;lon;timestamp;temperature;humidity
20233;DHT22;37438;55.674;13.074;2023-02-16T00:02:09;4.10;99.90
20233;DHT22;37438;55.674;13.074;2023-02-16T00:05:33;4.20;99.90
20233;DHT22;37438;55.674;13.074;2023-02-16T00:08:38;4.00;99.90
20233;DHT22;37438;55.674;13.074;2023-02-16T00:11:43;4.20;99.90
20233;DHT22;37438;55.674;13.074;2023-02-16T00:15:18;4.20;99.90
20233;DHT22;37438;55.674;13.074;2023-02-16T00:18:24;4.10;99.90
20233;DHT22;37438;55.674;13.074;2023-02-16T00:21:28;4.10;99.90
20233;DHT22;37438;55.674;13.074;2023-02-16T00:24:33;4.10;99.90
20233;DHT22;37438;55.674;13.074;2023-02-16T00:27:37;4.10;99.90
20233;DHT22;37438;55.674;13.074;2023-02-16T00:30:42;4.20;99.90
20233;DHT22;37438;55.674;13.074;2023-02-16T00:33:47;4.10;99.90
20233;DHT22;37438;55.674;13.074;2023-02-16T00:36:57;4.20;99.90
20233;DHT22;37438;55.674;13.074;2023-02-16T00:40:02;4.20;99.90
20233;DHT22;37438;55.674;13.074;2023-02-16T00:43:09;4.30;99.90
20233;DHT22;37438;55.674;13.074;2023-02-16T00:46:16;4.20;99.90
20233;DHT22;37438;55.674;13.074;2023-02-16T00:49:21;4.00;99.90
20233;DHT22;37438;55.674;13.074;2023-02-16T00:55:39;4.20;99.90
20233;DHT22;37438;55.674;13.074;2023-02-16T00:58:44;4.10;99.90
20233;DHT22;37438;55.674;13.074;2023-02-16T01:01:49;4.20;99.90
20233;DHT22;37438;55.674;13.074;2023-02-16T01:04:54;4.30;99.90
20233;DHT22;37438;55.674;13.074;2023-02-16T01:07:58;4.20;99.90
20233;DHT22;37438;55.674;13.074;2023-02-16T01:11:22;4.30;99.90
20233;DHT22;37438;55.674;13.074;2023-02-16T01:14:30;4.30;99.90
20233;DHT22;37438;55.674;13.074;2023-02-16T01:17:36;4.30;99.90
20233;DHT22;37438;55.674;13.074;2023-02-16T01:20:41;4.40;99.90
20233;DHT22;37438;55.674;13.074;2023-02-16T01:23:45;4.30;99.90
20233;DHT22;37438;55.674;13.074;2023-02-16T01:26:50;4.40;99.90
20233;DHT22;37438;55.674;13.074;2023-02-16T01:29:54;4.40;99.90
20233;DHT22;37438;55.674;13.074;2023-02-16T01:32:58;4.40;99.90
20233;DHT22;37438;55.674;13.074;2023-02-16T01:36:06;4.50;99.90
20233;DHT22;37438;55.674;13.074;2023-02-16T01:39:19;4.50;99.90
20233;DHT22;37438;55.674;13.074;2023-02-16T01:45:40;4.60;99.90
20233;DHT22;37438;55.674;13.074;2023-02-16T01:48:47;4.50;99.90
20233;DHT22;37438;55.674;13.074;2023-02-16T01:52:06;4.50;99.90
20233;DHT22;37438;55.674;13.074;2023-02-16T01:55:24;4.70;99.90
20233;DHT22;37438;55.674;13.074;2023-02-16T02:01:43;4.60;99.90
20233;DHT22;37438;55.674;13.074;2023-02-16T02:04:55;4.60;99.90
20233;DHT22;37438;55.674;13.074;2023-02-16T02:11:49;4.60;99.90
20233;DHT22;37438;55.674;13.074;2023-02-16T02:14:55;4.70;99.90
20233;DHT22;37438;55.674;13.074;2023-02-16T02:18:01;4.80;99.90
20233;DHT22;37438;55.674;13.074;2023-02-16T02:28:25;4.70;99.90
20233;DHT22;37438;55.674;13.074;2023-02-16T02:31:41;4.60;99.90
20233;DHT22;37438;55.674;13.074;2023-02-16T02:38:21;4.80;99.90
20233;DHT22;37438;55.674;13.074;2023-02-16T02:42:02;4.60;99.90
20233;DHT22;37438;55.674;13.074;2023-02-16T02:45:42;4.70;99.90
20233;DHT22;37438;55.674;13.074;2023-02-16T02:48:47;4.70;99.90
20233;DHT22;37438;55.674;13.074;2023-02-16T02:51:51;4.70;99.90
20233;DHT22;37438;55.674;13.074;2023-02-16T02:54:56;4.60;99.90
20233;DHT22;37438;55.674;13.074;2023-02-16T02:58:21;4.70;99.90
20233;DHT22;37438;55.674;13.074;2023-02-16T03:01:50;4.70;99.90
20233;DHT22;37438;55.674;13.074;2023-02-16T03:04:57;4.70;99.90
20233;DHT22;37438;55.674;13.074;2023-02-16T03:08:09;4.60;99.90
20233;DHT22;37438;55.674;13.074;2023-02-16T03:11:23;4.70;99.90
20233;DHT22;37438;55.674;13.074;2023-02-16T03:15:00;4.80;99.90
20233;DHT22;37438;55.674;13.074;2023-02-16T03:18:07;4.80;99.90
20233;DHT22;37438;55.674;13.074;2023-02-16T03:21:31;4.70;99.90
20233;DHT22;37438;55.674;13.074;2023-02-16T03:24:56;4.70;99.90
20233;DHT22;37438;55.674;13.074;2023-02-16T03:28:21;4.80;99.90
20233;DHT22;37438;55.674;13.074;2023-02-16T03:31:46;4.70;99.90
20233;DHT22;37438;55.674;13.074;2023-02-16T03:34:51;4.70;99.90
20233;DHT22;37438;55.674;13.074;2023-02-16T03:37:55;4.90;99.90
20233;DHT22;37438;55.674;13.074;2023-02-16T03:41:00;4.80;99.90
20233;DHT22;37438;55.674;13.074;2023-02-16T03:44:04;4.90;99.90
20233;DHT22;37438;55.674;13.074;2023-02-16T03:47:09;4.70;99.90
20233;DHT22;37438;55.674;13.074;2023-02-16T03:50:14;4.80;99.90
20233;DHT22;37438;55.674;13.074;2023-02-16T03:53:18;4.90;99.90
20233;DHT22;37438;55.674;13.074;2023-02-16T03:56:23;4.80;99.90
20233;DHT22;37438;55.674;13.074;2023-02-16T03:59:27;4.90;99.90
20233;DHT22;37438;55.674;13.074;2023-02-16T04:02:32;5.00;99.90
20233;DHT22;37438;55.674;13.074;2023-02-16T04:05:37;4.80;99.90
20233;DHT22;37438;55.674;13.074;2023-02-16T04:08:41;5.00;99.90
20233;DHT22;37438;55.674;13.074;2023-02-16T04:11:46;5.10;99.90
20233;DHT22;37438;55.674;13.074;2023-02-16T04:15:14;4.80;99.90
20233;DHT22;37438;55.674;13.074;2023-02-16T04:18:20;5.00;99.90
20233;DHT22;37438;55.674;13.074;2023-02-16T04:21:24;5.00;99.90
20233;DHT22;37438;55.674;13.074;2023-02-16T04:24:28;5.10;99.90
20233;DHT22;37438;55.674;13.074;2023-02-16T04:27:33;4.90;99.90
20233;DHT22;37438;55.674;13.074;2023-02-16T04:30:38;4.90;99.90
20233;DHT22;37438;55.674;13.074;2023-02-16T04:33:43;4.90;99.90
20233;DHT22;37438;55.674;13.074;2023-02-16T04:36:47;5.10;99.90
20233;DHT22;37438;55.674;13.074;2023-02-16T04:39:52;5.00;99.90
20233;DHT22;37438;55.674;13.074;2023-02-16T04:42:56;5.10;99.90
20233;DHT22;37438;55.674;13.074;2023-02-16T04:46:00;5.10;99.90
20233;DHT22;37438;55.674;13.074;2023-02-16T04:49:05;5.10;99.90
20233;DHT22;37438;55.674;13.074;2023-02-16T04:52:11;5.20;99.90
20233;DHT22;37438;55.674;13.074;2023-02-16T04:55:16;5.10;99.90
20233;DHT22;37438;55.674;13.074;2023-02-16T04:58:21;5.10;99.90
20233;DHT22;37438;55.674;13.074;2023-02-16T05:01:26;5.20;99.90
20233;DHT22;37438;55.674;13.074;2023-02-16T05:04:31;5.00;99.90
20233;DHT22;37438;55.674;13.074;2023-02-16T05:07:35;5.00;99.90
20233;DHT22;37438;55.674;13.074;2023-02-16T05:10:41;5.00;99.90
20233;DHT22;37438;55.674;13.074;2023-02-16T05:13:45;5.10;99.90
20233;DHT22;37438;55.674;13.074;2023-02-16T05:17:17;5.00;99.90
20233;DHT22;37438;55.674;13.074;2023-02-16T05:20:22;5.10;99.90
20233;DHT22;37438;55.674;13.074;2023-02-16T05:23:46;4.90;99.90
20233;DHT22;37438;55.674;13.074;2023-02-16T05:26:51;5.10;99.90
20233;DHT22;37438;55.674;13.074;2023-02-16T05:29:55;5.00;99.90
20233;DHT22;37438;55.674;13.074;2023-02-16T05:33:01;4.90;99.90
20233;DHT22;37438;55.674;13.074;2023-02-16T05:36:06;5.00;99.90
20233;DHT22;37438;55.674;13.074;2023-02-16T05:39:10;5.00;99.90
20233;DHT22;37438;55.674;13.074;2023-02-16T05:42:15;4.90;99.90
20233;DHT22;37438;55.674;13.074;2023-02-16T05:45:19;5.00;99.90
20233;DHT22;37438;55.674;13.074;2023-02-16T05:48:24;5.20;99.90
20233;DHT22;37438;55.674;13.074;2023-02-16T05:51:29;5.00;99.90
20233;DHT22;37438;55.674;13.074;2023-02-16T05:54:33;5.20;99.90
20233;DHT22;37438;55.674;13.074;2023-02-16T05:57:38;5.10;99.90
20233;DHT22;37438;55.674;13.074;2023-02-16T06:00:42;5.10;99.90
20233;DHT22;37438;55.674;13.074;2023-02-16T06:03:47;4.90;99.90
20233;DHT22;37438;55.674;13.074;2023-02-16T06:06:51;4.90;99.90
20233;DHT22;37438;55.674;13.074;2023-02-16T06:09:56;4.90;99.90
20233;DHT22;37438;55.674;13.074;2023-02-16T06:13:00;5.10;99.90
20233;DHT22;37438;55.674;13.074;2023-02-16T06:16:04;4.90;99.90
20233;DHT22;37438;55.674;13.074;2023-02-16T06:19:10;4.90;99.90
20233;DHT22;37438;55.674;13.074;2023-02-16T06:22:15;5.10;99.90
20233;DHT22;37438;55.674;13.074;2023-02-16T06:25:19;4.90;99.90
20233;DHT22;37438;55.674;13.074;2023-02-16T06:28:24;4.90;99.90
20233;DHT22;37438;55.674;13.074;2023-02-16T06:31:28;5.10;99.90
20233;DHT22;37438;55.674;13.074;2023-02-16T06:34:32;5.00;99.90
20233;DHT22;37438;55.674;13.074;2023-02-16T06:37:37;5.00;99.90
20233;DHT22;37438;55.674;13.074;2023-02-16T06:40:42;5.00;99.90
20233;DHT22;37438;55.674;13.074;2023-02-16T06:43:46;4.80;99.90
20233;DHT22;37438;55.674;13.074;2023-02-16T06:46:50;5.00;99.90
20233;DHT22;37438;55.674;13.074;2023-02-16T06:49:55;4.80;99.90
20233;DHT22;37438;55.674;13.074;2023-02-16T06:52:59;4.80;99.90
20233;DHT22;37438;55.674;13.074;2023-02-16T06:56:04;5.00;99.90
20233;DHT22;37438;55.674;13.074;2023-02-16T06:59:10;4.90;99.90
20233;DHT22;37438;55.674;13.074;2023-02-16T07:02:15;4.90;99.90
20233;DHT22;37438;55.674;13.074;2023-02-16T07:05:19;5.00;99.90
20233;DHT22;37438;55.674;13.074;2023-02-16T07:08:24;5.00;99.90
20233;DHT22;37438;55.674;13.074;2023-02-16T07:11:28;4.90;99.90
20233;DHT22;37438;55.674;13.074;2023-02-16T07:14:33;4.90;99.90
20233;DHT22;37438;55.674;13.074;2023-02-16T07:17:37;5.10;99.90
20233;DHT22;37438;55.674;13.074;2023-02-16T07:20:41;5.00;99.90
20233;DHT22;37438;55.674;13.074;2023-02-16T07:23:46;5.20;99.90
20233;DHT22;37438;55.674;13.074;2023-02-16T07:26:50;5.00;99.90
20233;DHT22;37438;55.674;13.074;2023-02-16T07:29:55;5.20;99.90
20233;DHT22;37438;55.674;13.074;2023-02-16T07:33:00;5.10;99.90
20233;DHT22;37438;55.674;13.074;2023-02-16T07:36:05;5.10;99.90
20233;DHT22;37438;55.674;13.074;2023-02-16T07:39:10;5.00;99.90
20233;DHT22;37438;55.674;13.074;2023-02-16T07:42:15;5.20;99.90
20233;DHT22;37438;55.674;13.074;2023-02-16T07:45:23;5.20;99.90
20233;DHT22;37438;55.674;13.074;2023-02-16T07:48:28;5.00;99.90
20233;DHT22;37438;55.674;13.074;2023-02-16T07:51:32;5.30;99.90
20233;DHT22;37438;55.674;13.074;2023-02-16T07:54:38;5.20;99.90
20233;DHT22;37438;55.674;13.074;2023-02-16T07:57:43;5.30;99.90
20233;DHT22;37438;55.674;13.074;2023-02-16T08:00:47;5.20;99.90
20233;DHT22;37438;55.674;13.074;2023-02-16T08:03:51;5.40;99.90
20233;DHT22;37438;55.674;13.074;2023-02-16T08:06:56;5.40;99.90
20233;DHT22;37438;55.674;13.074;2023-02-16T08:10:01;5.30;99.90
20233;DHT22;37438;55.674;13.074;2023-02-16T08:13:05;5.40;99.90
20233;DHT22;37438;55.674;13.074;2023-02-16T08:16:13;5.40;99.90
20233;DHT22;37438;55.674;13.074;2023-02-16T08:19:17;5.30;99.90
20233;DHT22;37438;55.674;13.074;2023-02-16T08:22:22;5.50;99.90
20233;DHT22;37438;55.674;13.074;2023-02-16T08:25:27;5.50;99.90
20233;DHT22;37438;55.674;13.074;2023-02-16T08:28:31;5.60;99.90
20233;DHT22;37438;55.674;13.074;2023-02-16T08:31:36;5.40;99.90
20233;DHT22;37438;55.674;13.074;2023-02-16T08:34:41;5.50;99.90
20233;DHT22;37438;55.674;13.074;2023-02-16T08:37:46;5.60;99.90
20233;DHT22;37438;55.674;13.074;2023-02-16T08:40:50;5.60;99.90
20233;DHT22;37438;55.674;13.074;2023-02-16T08:43:55;5.70;99.90
20233;DHT22;37438;55.674;13.074;2023-02-16T08:47:00;5.80;99.90
20233;DHT22;37438;55.674;13.074;2023-02-16T08:50:04;5.80;99.90
20233;DHT22;37438;55.674;13.074;2023-02-16T08:53:09;5.80;99.90
20233;DHT22;37438;55.674;13.074;2023-02-16T08:56:14;5.90;99.90
20233;DHT22;37438;55.674;13.074;2023-02-16T08:59:20;5.90;99.90
20233;DHT22;37438;55.674;13.074;2023-02-16T09:02:25;5.70;99.90
20233;DHT22;37438;55.674;13.074;2023-02-16T09:05:29;5.70;99.90
20233;DHT22;37438;55.674;13.074;2023-02-16T09:08:34;6.00;99.90
20233;DHT22;37438;55.674;13.074;2023-02-16T09:11:40;5.90;99.90
20233;DHT22;37438;55.674;13.074;2023-02-16T09:14:45;5.80;99.90
20233;DHT22;37438;55.674;13.074;2023-02-16T09:17:50;5.80;99.90
20233;DHT22;37438;55.674;13.074;2023-02-16T09:20:55;5.70;99.90
20233;DHT22;37438;55.674;13.074;2023-02-16T09:24:02;5.70;99.90
20233;DHT22;37438;55.674;13.074;2023-02-16T09:27:07;5.70;99.90
20233;DHT22;37438;55.674;13.074;2023-02-16T09:30:12;6.00;99.90
20233;DHT22;37438;55.674;13.074;2023-02-16T09:33:16;5.90;99.90
20233;DHT22;37438;55.674;13.074;2023-02-16T09:36:22;6.10;99.90
20233;DHT22;37438;55.674;13.074;2023-02-16T09:39:26;5.80;99.90
20233;DHT22;37438;55.674;13.074;2023-02-16T09:45:52;5.90;99.90
20233;DHT22;37438;55.674;13.074;2023-02-16T09:49:00;5.80;99.90
20233;DHT22;37438;55.674;13.074;2023-02-16T09:55:14;5.90;99.90
20233;DHT22;37438;55.674;13.074;2023-02-16T09:58:22;5.70;99.90
20233;DHT22;37438;55.674;13.074;2023-02-16T10:08:52;5.90;99.90
20233;DHT22;37438;55.674;13.074;2023-02-16T10:12:05;6.00;99.90
20233;DHT22;37438;55.674;13.074;2023-02-16T10:15:17;6.00;99.90
20233;DHT22;37438;55.674;13.074;2023-02-16T10:18:37;6.00;99.90
20233;DHT22;37438;55.674;13.074;2023-02-16T10:21:47;5.80;99.90
20233;DHT22;37438;55.674;13.074;2023-02-16T10:25:03;5.80;99.90
20233;DHT22;37438;55.674;13.074;2023-02-16T10:35:14;6.00;99.90
20233;DHT22;37438;55.674;13.074;2023-02-16T10:38:32;5.80;99.90
20233;DHT22;37438;55.674;13.074;2023-02-16T10:41:51;5.90;99.90
20233;DHT22;37438;55.674;13.074;2023-02-16T10:48:20;6.00;99.90
20233;DHT22;37438;55.674;13.074;2023-02-16T10:51:30;5.80;99.90
20233;DHT22;37438;55.674;13.074;2023-02-16T10:54:35;6.00;99.90
20233;DHT22;37438;55.674;13.074;2023-02-16T10:57:40;6.10;99.90
20233;DHT22;37438;55.674;13.074;2023-02-16T11:00:49;6.10;99.90
20233;DHT22;37438;55.674;13.074;2023-02-16T11:03:55;6.10;99.90
20233;DHT22;37438;55.674;13.074;2023-02-16T11:07:01;6.00;99.90
20233;DHT22;37438;55.674;13.074;2023-02-16T11:10:22;6.00;99.90
20233;DHT22;37438;55.674;13.074;2023-02-16T11:13:36;6.20;99.90
20233;DHT22;37438;55.674;13.074;2023-02-16T11:16:40;6.40;99.90
20233;DHT22;37438;55.674;13.074;2023-02-16T11:20:22;6.60;99.90
20233;DHT22;37438;55.674;13.074;2023-02-16T11:26:33;6.80;99.90
20233;DHT22;37438;55.674;13.074;2023-02-16T11:29:37;6.80;99.90
20233;DHT22;37438;55.674;13.074;2023-02-16T11:32:42;6.90;99.90
20233;DHT22;37438;55.674;13.074;2023-02-16T11:35:47;6.70;99.90
20233;DHT22;37438;55.674;13.074;2023-02-16T11:39:00;6.60;99.90
20233;DHT22;37438;55.674;13.074;2023-02-16T11:45:30;6.50;99.90
20233;DHT22;37438;55.674;13.074;2023-02-16T11:48:35;6.60;99.90
20233;DHT22;37438;55.674;13.074;2023-02-16T11:51:39;6.60;99.90
20233;DHT22;37438;55.674;13.074;2023-02-16T11:54:56;6.60;99.90
20233;DHT22;37438;55.674;13.074;2023-02-16T11:58:17;6.70;99.90
20233;DHT22;37438;55.674;13.074;2023-02-16T12:01:38;6.90;99.90
20233;DHT22;37438;55.674;13.074;2023-02-16T12:05:01;6.90;99.90
20233;DHT22;37438;55.674;13.074;2023-02-16T12:15:03;6.70;99.90
20233;DHT22;37438;55.674;13.074;2023-02-16T12:29:26;6.90;99.90
20233;DHT22;37438;55.674;13.074;2023-02-16T12:43:39;6.90;99.90
20233;DHT22;37438;55.674;13.074;2023-02-16T12:46:47;6.70;99.90
20233;DHT22;37438;55.674;13.074;2023-02-16T12:50:00;6.80;99.90
20233;DHT22;37438;55.674;13.074;2023-02-16T12:53:20;6.80;99.90
20233;DHT22;37438;55.674;13.074;2023-02-16T12:56:34;6.80;99.90
20233;DHT22;37438;55.674;13.074;2023-02-16T12:59:56;6.70;99.90
20233;DHT22;37438;55.674;13.074;2023-02-16T13:03:38;6.60;99.90
20233;DHT22;37438;55.674;13.074;2023-02-16T13:06:51;6.80;99.90
20233;DHT22;37438;55.674;13.074;2023-02-16T13:10:26;6.70;99.90
20233;DHT22;37438;55.674;13.074;2023-02-16T13:13:34;6.70;99.90
20233;DHT22;37438;55.674;13.074;2023-02-16T13:19:51;6.80;99.90
20233;DHT22;37438;55.674;13.074;2023-02-16T13:37:16;6.80;99.90
20233;DHT22;37438;55.674;13.074;2023-02-16T13:44:02;7.00;99.90
20233;DHT22;37438;55.674;13.074;2023-02-16T13:47:14;7.00;99.90
20233;DHT22;37438;55.674;13.074;2023-02-16T13:53:27;7.10;99.90
20233;DHT22;37438;55.674;13.074;2023-02-16T13:56:35;7.10;99.90
20233;DHT22;37438;55.674;13.074;2023-02-16T13:59:46;7.00;99.90
20233;DHT22;37438;55.674;13.074;2023-02-16T14:02:54;6.90;99.90
20233;DHT22;37438;55.674;13.074;2023-02-16T14:06:31;6.90;99.90
20233;DHT22;37438;55.674;13.074;2023-02-16T14:12:40;7.10;99.90
20233;DHT22;37438;55.674;13.074;2023-02-16T14:15:52;7.00;99.90
20233;DHT22;37438;55.674;13.074;2023-02-16T14:19:15;7.10;99.90
20233;DHT22;37438;55.674;13.074;2023-02-16T14:22:31;7.00;99.90
20233;DHT22;37438;55.674;13.074;2023-02-16T14:25:38;7.00;99.90
20233;DHT22;37438;55.674;13.074;2023-02-16T14:29:05;7.10;99.90
20233;DHT22;37438;55.674;13.074;2023-02-16T14:35:35;7.00;99.90
20233;DHT22;37438;55.674;13.074;2023-02-16T14:41:44;6.90;99.90
20233;DHT22;37438;55.674;13.074;2023-02-16T14:45:35;7.00;99.90
20233;DHT22;37438;55.674;13.074;2023-02-16T14:52:06;6.80;99.90
20233;DHT22;37438;55.674;13.074;2023-02-16T15:01:42;7.00;99.90
20233;DHT22;37438;55.674;13.074;2023-02-16T15:04:47;6.70;99.90
20233;DHT22;37438;55.674;13.074;2023-02-16T15:12:05;6.70;99.90
20233;DHT22;37438;55.674;13.074;2023-02-16T15:15:16;6.60;99.90
20233;DHT22;37438;55.674;13.074;2023-02-16T15:18:27;6.60;99.90
20233;DHT22;37438;55.674;13.074;2023-02-16T15:21:32;6.80;99.90
20233;DHT22;37438;55.674;13.074;2023-02-16T15:24:36;6.60;99.90
20233;DHT22;37438;55.674;13.074;2023-02-16T15:27:40;6.60;99.90
20233;DHT22;37438;55.674;13.074;2023-02-16T15:30:50;6.70;99.90
20233;DHT22;37438;55.674;13.074;2023-02-16T15:33:57;6.60;99.90
20233;DHT22;37438;55.674;13.074;2023-02-16T15:37:28;6.80;99.90
20233;DHT22;37438;55.674;13.074;2023-02-16T15:40:34;6.80;99.90
20233;DHT22;37438;55.674;13.074;2023-02-16T15:43:46;6.80;99.90
20233;DHT22;37438;55.674;13.074;2023-02-16T15:46:51;6.90;99.90
20233;DHT22;37438;55.674;13.074;2023-02-16T15:50:12;6.90;99.90
20233;DHT22;37438;55.674;13.074;2023-02-16T15:53:32;7.00;99.90
20233;DHT22;37438;55.674;13.074;2023-02-16T15:56:43;6.90;99.90
20233;DHT22;37438;55.674;13.074;2023-02-16T15:59:51;6.80;99.90
20233;DHT22;37438;55.674;13.074;2023-02-16T16:02:57;6.80;99.90
20233;DHT22;37438;55.674;13.074;2023-02-16T16:06:04;6.70;99.90
20233;DHT22;37438;55.674;13.074;2023-02-16T16:09:26;6.80;99.90
20233;DHT22;37438;55.674;13.074;2023-02-16T16:12:31;6.90;99.90
20233;DHT22;37438;55.674;13.074;2023-02-16T16:15:39;6.80;99.90
20233;DHT22;37438;55.674;13.074;2023-02-16T16:18:46;6.90;99.90
20233;DHT22;37438;55.674;13.074;2023-02-16T16:21:52;6.90;99.90
20233;DHT22;37438;55.674;13.074;2023-02-16T16:24:58;6.70;99.90
20233;DHT22;37438;55.674;13.074;2023-02-16T16:28:06;6.80;99.90
20233;DHT22;37438;55.674;13.074;2023-02-16T16:31:30;6.80;99.90
20233;DHT22;37438;55.674;13.074;2023-02-16T16:34:38;6.90;99.90
20233;DHT22;37438;55.674;13.074;2023-02-16T16:37:51;7.00;99.90
20233;DHT22;37438;55.674;13.074;2023-02-16T16:41:01;6.80;99.90
20233;DHT22;37438;55.674;13.074;2023-02-16T16:44:12;6.90;99.90
20233;DHT22;37438;55.674;13.074;2023-02-16T16:47:42;6.90;99.90
20233;DHT22;37438;55.674;13.074;2023-02-16T16:57:25;6.80;99.90
20233;DHT22;37438;55.674;13.074;2023-02-16T17:00:36;6.80;99.90
20233;DHT22;37438;55.674;13.074;2023-02-16T17:03:41;6.90;99.90
20233;DHT22;37438;55.674;13.074;2023-02-16T17:06:45;6.90;99.90
20233;DHT22;37438;55.674;13.074;2023-02-16T17:09:50;6.90;99.90
20233;DHT22;37438;55.674;13.074;2023-02-16T17:12:56;6.90;99.90
20233;DHT22;37438;55.674;13.074;2023-02-16T17:16:38;7.00;99.90
20233;DHT22;37438;55.674;13.074;2023-02-16T17:19:44;6.90;99.90
20233;DHT22;37438;55.674;13.074;2023-02-16T17:22:48;6.90;99.90
20233;DHT22;37438;55.674;13.074;2023-02-16T17:25:52;7.10;99.90
20233;DHT22;37438;55.674;13.074;2023-02-16T17:28:57;7.00;99.90
20233;DHT22;37438;55.674;13.074;2023-02-16T17:32:03;7.10;99.90
20233;DHT22;37438;55.674;13.074;2023-02-16T17:35:08;7.10;99.90
20233;DHT22;37438;55.674;13.074;2023-02-16T17:38:18;7.00;99.90
20233;DHT22;37438;55.674;13.074;2023-02-16T17:41:26;7.10;99.90
20233;DHT22;37438;55.674;13.074;2023-02-16T17:44:31;7.20;99.90
20233;DHT22;37438;55.674;13.074;2023-02-16T17:47:35;7.20;99.90
20233;DHT22;37438;55.674;13.074;2023-02-16T17:50:40;7.00;99.90
20233;DHT22;37438;55.674;13.074;2023-02-16T17:53:44;7.30;99.90
20233;DHT22;37438;55.674;13.074;2023-02-16T17:56:49;7.30;99.90
20233;DHT22;37438;55.674;13.074;2023-02-16T17:59:53;7.30;99.90
20233;DHT22;37438;55.674;13.074;2023-02-16T18:02:58;7.10;99.90
20233;DHT22;37438;55.674;13.074;2023-02-16T18:06:03;7.10;99.90
20233;DHT22;37438;55.674;13.074;2023-02-16T18:09:12;7.30;99.90
20233;DHT22;37438;55.674;13.074;2023-02-16T18:12:18;7.10;99.90
20233;DHT22;37438;55.674;13.074;2023-02-16T18:15:22;7.10;99.90
20233;DHT22;37438;55.674;13.074;2023-02-16T18:18:26;7.30;99.90
20233;DHT22;37438;55.674;13.074;2023-02-16T18:21:31;7.20;99.90
20233;DHT22;37438;55.674;13.074;2023-02-16T18:24:35;7.20;99.90
20233;DHT22;37438;55.674;13.074;2023-02-16T18:27:40;7.20;99.90
20233;DHT22;37438;55.674;13.074;2023-02-16T18:30:48;7.10;99.90
20233;DHT22;37438;55.674;13.074;2023-02-16T18:33:53;7.30;99.90
20233;DHT22;37438;55.674;13.074;2023-02-16T18:36:58;7.20;99.90
20233;DHT22;37438;55.674;13.074;2023-02-16T18:40:04;7.20;99.90
20233;DHT22;37438;55.674;13.074;2023-02-16T18:43:09;7.40;99.90
20233;DHT22;37438;55.674;13.074;2023-02-16T18:46:14;7.40;99.90
20233;DHT22;37438;55.674;13.074;2023-02-16T18:49:19;7.20;99.90
20233;DHT22;37438;55.674;13.074;2023-02-16T18:52:24;7.20;99.90
20233;DHT22;37438;55.674;13.074;2023-02-16T18:55:28;7.30;99.90
20233;DHT22;37438;55.674;13.074;2023-02-16T18:58:35;7.30;99.90
20233;DHT22;37438;55.674;13.074;2023-02-16T19:01:40;7.10;99.90
20233;DHT22;37438;55.674;13.074;2023-02-16T19:04:45;7.40;99.90
20233;DHT22;37438;55.674;13.074;2023-02-16T19:07:51;7.20;99.90
20233;DHT22;37438;55.674;13.074;2023-02-16T19:10:55;7.20;99.90
20233;DHT22;37438;55.674;13.074;2023-02-16T19:14:00;7.10;99.90
20233;DHT22;37438;55.674;13.074;2023-02-16T19:17:04;7.30;99.90
20233;DHT22;37438;55.674;13.074;2023-02-16T19:20:10;7.30;99.90
20233;DHT22;37438;55.674;13.074;2023-02-16T19:23:17;7.30;99.90
20233;DHT22;37438;55.674;13.074;2023-02-16T19:26:22;7.30;99.90
20233;DHT22;37438;55.674;13.074;2023-02-16T19:29:26;7.20;99.90
20233;DHT22;37438;55.674;13.074;2023-02-16T19:32:30;7.10;99.90
20233;DHT22;37438;55.674;13.074;2023-02-16T19:35:35;7.10;99.90
20233;DHT22;37438;55.674;13.074;2023-02-16T19:38:40;7.30;99.90
20233;DHT22;37438;55.674;13.074;2023-02-16T19:41:45;7.20;99.90
20233;DHT22;37438;55.674;13.074;2023-02-16T19:44:50;7.20;99.90
20233;DHT22;37438;55.674;13.074;2023-02-16T19:47:54;7.20;99.90
20233;DHT22;37438;55.674;13.074;2023-02-16T19:51:00;7.30;99.90
20233;DHT22;37438;55.674;13.074;2023-02-16T19:54:04;7.30;99.90
20233;DHT22;37438;55.674;13.074;2023-02-16T19:57:09;7.30;99.90
20233;DHT22;37438;55.674;13.074;2023-02-16T20:00:13;7.10;99.90
20233;DHT22;37438;55.674;13.074;2023-02-16T20:03:18;7.10;99.90
20233;DHT22;37438;55.674;13.074;2023-02-16T20:06:29;7.10;99.90
20233;DHT22;37438;55.674;13.074;2023-02-16T20:09:34;7.10;99.90
20233;DHT22;37438;55.674;13.074;2023-02-16T20:12:40;6.90;99.90
20233;DHT22;37438;55.674;13.074;2023-02-16T20:15:44;6.90;99.90
20233;DHT22;37438;55.674;13.074;2023-02-16T20:18:49;6.80;99.90
20233;DHT22;37438;55.674;13.074;2023-02-16T20:21:53;6.90;99.90
20233;DHT22;37438;55.674;13.074;2023-02-16T20:24:58;6.90;99.90
20233;DHT22;37438;55.674;13.074;2023-02-16T20:28:03;6.70;99.90
20233;DHT22;37438;55.674;13.074;2023-02-16T20:31:14;6.60;99.90
20233;DHT22;37438;55.674;13.074;2023-02-16T20:34:19;6.60;99.90
20233;DHT22;37438;55.674;13.074;2023-02-16T20:37:24;6.60;99.90
20233;DHT22;37438;55.674;13.074;2023-02-16T20:40:29;6.60;99.90
20233;DHT22;37438;55.674;13.074;2023-02-16T20:43:33;6.60;99.90
20233;DHT22;37438;55.674;13.074;2023-02-16T20:46:39;6.50;99.90
20233;DHT22;37438;55.674;13.074;2023-02-16T20:49:44;6.50;99.90
20233;DHT22;37438;55.674;13.074;2023-02-16T20:52:48;6.50;99.90
20233;DHT22;37438;55.674;13.074;2023-02-16T20:56:15;6.40;99.90
20233;DHT22;37438;55.674;13.074;2023-02-16T20:59:20;6.40;99.90
20233;DHT22;37438;55.674;13.074;2023-02-16T21:02:25;6.30;99.90
20233;DHT22;37438;55.674;13.074;2023-02-16T21:05:29;6.30;99.90
20233;DHT22;37438;55.674;13.074;2023-02-16T21:08:33;6.30;99.90
20233;DHT22;37438;55.674;13.074;2023-02-16T21:11:38;6.30;99.90
20233;DHT22;37438;55.674;13.074;2023-02-16T21:14:42;6.30;99.90
20233;DHT22;37438;55.674;13.074;2023-02-16T21:17:46;6.30;99.90
20233;DHT22;37438;55.674;13.074;2023-02-16T21:20:51;6.30;99.90
20233;DHT22;37438;55.674;13.074;2023-02-16T21:23:55;6.10;99.90
20233;DHT22;37438;55.674;13.074;2023-02-16T21:27:00;6.20;99.90
20233;DHT22;37438;55.674;13.074;2023-02-16T21:30:05;6.30;99.90
20233;DHT22;37438;55.674;13.074;2023-02-16T21:33:10;6.40;99.90
20233;DHT22;37438;55.674;13.074;2023-02-16T21:36:18;6.40;99.90
20233;DHT22;37438;55.674;13.074;2023-02-16T21:39:23;6.20;99.90
20233;DHT22;37438;55.674;13.074;2023-02-16T21:42:47;6.30;99.90
20233;DHT22;37438;55.674;13.074;2023-02-16T21:45:59;6.30;99.90
20233;DHT22;37438;55.674;13.074;2023-02-16T21:49:09;6.20;99.90
20233;DHT22;37438;55.674;13.074;2023-02-16T21:52:14;6.20;99.90
20233;DHT22;37438;55.674;13.074;2023-02-16T21:55:18;6.10;99.90
20233;DHT22;37438;55.674;13.074;2023-02-16T21:58:42;6.20;99.90
20233;DHT22;37438;55.674;13.074;2023-02-16T22:01:48;6.30;99.90
20233;DHT22;37438;55.674;13.074;2023-02-16T22:04:54;6.20;99.90
20233;DHT22;37438;55.674;13.074;2023-02-16T22:07:58;6.10;99.90